Aérodrome :
LOGIN :

S'inscrire | Disclaimer

   EN    FR    IT 

 










Légende :    VFR   VFR Marginal   IFR   IFR Intensif   IFR Très Intensif
Visi : 
Plafond : 
>= 8 km
>= 3000ft
5 à 8 km
1000 à 3000 ft
1500m à 5 km
500 à 1000 ft
800 à 1500m
200 à 500 ft
< 800m
< 200 ft
Symboles :   Orages  Brouillard  Fortes neiges  Fortes précipitations  Vent > 20 kt
SIGMETs :   Divers  Orages  Givrage  Turbulence  Onde Orograph.  Cendres Volcan.






- Altitude de l'aérodrome : 397 ft
- Code IATA : IAS


LRIA - Iasi

DERNIER METAR :
  • 171200Z 13011KT 9999 BKN023 14/09 Q1024

METARs EXPIRÉS :
  • 171130Z 13011KT 9999 BKN021 14/09 Q1024
  • 171100Z 13011KT 9999 BKN020 15/09 Q1024
  • 171030Z 14010KT 9999 BKN020 15/10 Q1024
  • 171000Z 13014KT 9999 BKN020 15/09 Q1024
  • 170930Z 15011KT 9999 BKN020 14/10 Q1024

TAF TAF LRIA
Valide du 17 à 12h jusqu'au 17 à 21h UTC


171100Z 1712/1721 13012KT 9999 BKN020
BECMG 1719/1721 5000 BR BKN015



MET'MAP, la Météo Aéronautique d'un coup d'oeil ! - Copyright ORBIFLY Décembre 2007 - Disclaimer

ORBIFLY MET'MAP TEAM :

Programmation & Développement : Alexandra Zaïnal
Conception & Développement : Baudouin d'Aumeries
Co-Programmation & Développement : Marc-Olivier Méhu
Soutien technique & logistique : Manuel Goepfert

Contact : metmap@orbifly.com




SOURCES & CREDITS :

   NOAA